Terminal Aerodrome Forecast
Issued by NWS Pittsburgh, PA

Current Version | Previous Version | Graphics & Text | Print | Product List | Glossary On
Versions: 1 2 3 4 5 6 7 8 9 10 11 12 13 14 15 16 17 18 19 20 21 22 23 24 25 26 27 28
000
FTUS41 KPBZ 170540
TAFPIT
TAF
KPIT 170540Z 1706/1812 11003KT P6SM SCT250
     FM171500 18005KT P6SM BKN100
     FM172100 18005KT P6SM VCTS BKN050CB
     FM180200 22005KT 5SM -SHRA BR OVC035
     FM181000 22006KT P6SM VCSH BKN020=

USA.gov is the U.S. government's official web portal to all federal, state and local government web resources and services.